sensor_id;sensor_type;location;lat;lon;timestamp;P1;durP1;ratioP1;P2;durP2;ratioP2
68196;SDS011;55019;49.382;11.358;2023-03-16T00:01:15;3.45;;;1.73;;
68196;SDS011;55019;49.382;11.358;2023-03-16T00:03:41;4.22;;;2.05;;
68196;SDS011;55019;49.382;11.358;2023-03-16T00:06:07;4.20;;;2.30;;
68196;SDS011;55019;49.382;11.358;2023-03-16T00:08:33;5.28;;;2.08;;
68196;SDS011;55019;49.382;11.358;2023-03-16T00:11:00;5.75;;;2.53;;
68196;SDS011;55019;49.382;11.358;2023-03-16T00:13:26;4.88;;;2.20;;
68196;SDS011;55019;49.382;11.358;2023-03-16T00:15:56;4.22;;;2.13;;
68196;SDS011;55019;49.382;11.358;2023-03-16T00:18:28;3.40;;;1.80;;
68196;SDS011;55019;49.382;11.358;2023-03-16T00:20:58;5.00;;;1.90;;
68196;SDS011;55019;49.382;11.358;2023-03-16T00:23:26;5.30;;;1.95;;
68196;SDS011;55019;49.382;11.358;2023-03-16T00:25:57;4.88;;;2.35;;
68196;SDS011;55019;49.382;11.358;2023-03-16T00:28:24;3.50;;;1.88;;
68196;SDS011;55019;49.382;11.358;2023-03-16T00:30:51;4.75;;;2.38;;
68196;SDS011;55019;49.382;11.358;2023-03-16T00:33:23;4.28;;;1.90;;
68196;SDS011;55019;49.382;11.358;2023-03-16T00:35:51;3.53;;;1.90;;
68196;SDS011;55019;49.382;11.358;2023-03-16T00:40:52;3.38;;;1.55;;
68196;SDS011;55019;49.382;11.358;2023-03-16T00:43:18;2.95;;;1.52;;
68196;SDS011;55019;49.382;11.358;2023-03-16T00:45:43;3.67;;;1.83;;
68196;SDS011;55019;49.382;11.358;2023-03-16T00:48:10;2.72;;;1.60;;
68196;SDS011;55019;49.382;11.358;2023-03-16T00:50:36;3.78;;;2.03;;
68196;SDS011;55019;49.382;11.358;2023-03-16T00:53:03;3.58;;;1.80;;
68196;SDS011;55019;49.382;11.358;2023-03-16T00:55:28;3.08;;;1.80;;
68196;SDS011;55019;49.382;11.358;2023-03-16T00:57:54;3.00;;;1.88;;
68196;SDS011;55019;49.382;11.358;2023-03-16T01:00:20;3.28;;;1.38;;
68196;SDS011;55019;49.382;11.358;2023-03-16T01:02:46;5.55;;;2.08;;
68196;SDS011;55019;49.382;11.358;2023-03-16T01:05:13;2.75;;;1.50;;
68196;SDS011;55019;49.382;11.358;2023-03-16T01:07:40;3.72;;;1.95;;
68196;SDS011;55019;49.382;11.358;2023-03-16T01:10:06;3.42;;;1.65;;
68196;SDS011;55019;49.382;11.358;2023-03-16T01:12:33;3.00;;;1.58;;
68196;SDS011;55019;49.382;11.358;2023-03-16T01:14:59;3.30;;;1.63;;
68196;SDS011;55019;49.382;11.358;2023-03-16T01:17:25;4.60;;;2.63;;
68196;SDS011;55019;49.382;11.358;2023-03-16T01:19:51;3.97;;;2.35;;
68196;SDS011;55019;49.382;11.358;2023-03-16T01:22:18;3.58;;;2.30;;
68196;SDS011;55019;49.382;11.358;2023-03-16T01:24:44;5.28;;;2.30;;
68196;SDS011;55019;49.382;11.358;2023-03-16T01:27:11;2.75;;;1.80;;
68196;SDS011;55019;49.382;11.358;2023-03-16T01:29:38;4.00;;;1.90;;
68196;SDS011;55019;49.382;11.358;2023-03-16T01:32:05;2.90;;;1.70;;
68196;SDS011;55019;49.382;11.358;2023-03-16T01:34:32;3.15;;;1.90;;
68196;SDS011;55019;49.382;11.358;2023-03-16T01:36:59;3.00;;;1.67;;
68196;SDS011;55019;49.382;11.358;2023-03-16T01:39:44;2.78;;;1.50;;
68196;SDS011;55019;49.382;11.358;2023-03-16T01:42:10;3.45;;;1.55;;
68196;SDS011;55019;49.382;11.358;2023-03-16T01:44:55;4.32;;;1.90;;
68196;SDS011;55019;49.382;11.358;2023-03-16T01:47:30;2.47;;;1.55;;
68196;SDS011;55019;49.382;11.358;2023-03-16T01:50:02;3.17;;;2.03;;
68196;SDS011;55019;49.382;11.358;2023-03-16T01:52:32;3.15;;;2.10;;
68196;SDS011;55019;49.382;11.358;2023-03-16T01:55:06;3.65;;;1.80;;
68196;SDS011;55019;49.382;11.358;2023-03-16T01:57:34;3.67;;;1.67;;
68196;SDS011;55019;49.382;11.358;2023-03-16T02:00:05;3.08;;;1.98;;
68196;SDS011;55019;49.382;11.358;2023-03-16T02:02:54;3.30;;;1.70;;
68196;SDS011;55019;49.382;11.358;2023-03-16T02:05:43;3.53;;;1.75;;
68196;SDS011;55019;49.382;11.358;2023-03-16T02:08:14;7.80;;;2.40;;
68196;SDS011;55019;49.382;11.358;2023-03-16T02:10:42;5.55;;;2.05;;
68196;SDS011;55019;49.382;11.358;2023-03-16T02:13:09;4.40;;;1.65;;
68196;SDS011;55019;49.382;11.358;2023-03-16T02:15:35;3.53;;;1.92;;
68196;SDS011;55019;49.382;11.358;2023-03-16T02:18:03;4.20;;;1.85;;
68196;SDS011;55019;49.382;11.358;2023-03-16T02:23:04;5.07;;;2.13;;
68196;SDS011;55019;49.382;11.358;2023-03-16T02:28:14;3.72;;;1.90;;
68196;SDS011;55019;49.382;11.358;2023-03-16T02:30:47;4.35;;;2.00;;
68196;SDS011;55019;49.382;11.358;2023-03-16T02:33:13;2.13;;;1.52;;
68196;SDS011;55019;49.382;11.358;2023-03-16T02:35:42;3.35;;;1.80;;
68196;SDS011;55019;49.382;11.358;2023-03-16T02:38:08;2.47;;;1.52;;
68196;SDS011;55019;49.382;11.358;2023-03-16T02:40:40;5.03;;;1.90;;
68196;SDS011;55019;49.382;11.358;2023-03-16T02:43:14;3.55;;;1.80;;
68196;SDS011;55019;49.382;11.358;2023-03-16T02:45:55;4.05;;;1.85;;
68196;SDS011;55019;49.382;11.358;2023-03-16T02:51:12;4.30;;;2.00;;
68196;SDS011;55019;49.382;11.358;2023-03-16T02:53:39;3.15;;;1.85;;
68196;SDS011;55019;49.382;11.358;2023-03-16T02:56:06;5.82;;;1.80;;
68196;SDS011;55019;49.382;11.358;2023-03-16T02:58:34;2.13;;;1.25;;
68196;SDS011;55019;49.382;11.358;2023-03-16T03:01:04;3.22;;;1.60;;
68196;SDS011;55019;49.382;11.358;2023-03-16T03:05:58;6.40;;;1.98;;
68196;SDS011;55019;49.382;11.358;2023-03-16T03:08:26;5.15;;;2.13;;
68196;SDS011;55019;49.382;11.358;2023-03-16T03:10:52;4.20;;;1.73;;
68196;SDS011;55019;49.382;11.358;2023-03-16T03:13:17;4.43;;;2.10;;
68196;SDS011;55019;49.382;11.358;2023-03-16T03:15:43;3.92;;;1.70;;
68196;SDS011;55019;49.382;11.358;2023-03-16T03:18:10;2.83;;;1.65;;
68196;SDS011;55019;49.382;11.358;2023-03-16T03:20:35;2.95;;;2.10;;
68196;SDS011;55019;49.382;11.358;2023-03-16T03:23:01;3.78;;;1.67;;
68196;SDS011;55019;49.382;11.358;2023-03-16T03:25:27;3.47;;;1.50;;
68196;SDS011;55019;49.382;11.358;2023-03-16T03:27:53;3.50;;;1.33;;
68196;SDS011;55019;49.382;11.358;2023-03-16T03:30:21;2.40;;;1.17;;
68196;SDS011;55019;49.382;11.358;2023-03-16T03:32:48;2.78;;;1.80;;
68196;SDS011;55019;49.382;11.358;2023-03-16T03:35:17;2.72;;;1.52;;
68196;SDS011;55019;49.382;11.358;2023-03-16T03:37:43;3.92;;;1.30;;
68196;SDS011;55019;49.382;11.358;2023-03-16T03:40:11;1.88;;;1.02;;
68196;SDS011;55019;49.382;11.358;2023-03-16T03:42:39;2.60;;;1.15;;
68196;SDS011;55019;49.382;11.358;2023-03-16T03:45:06;3.42;;;1.67;;
68196;SDS011;55019;49.382;11.358;2023-03-16T03:47:32;1.90;;;1.17;;
68196;SDS011;55019;49.382;11.358;2023-03-16T03:49:59;2.95;;;1.30;;
68196;SDS011;55019;49.382;11.358;2023-03-16T03:52:26;3.58;;;1.17;;
68196;SDS011;55019;49.382;11.358;2023-03-16T03:54:52;0.77;;;0.75;;
68196;SDS011;55019;49.382;11.358;2023-03-16T03:57:18;2.97;;;1.63;;
68196;SDS011;55019;49.382;11.358;2023-03-16T03:59:44;2.35;;;1.15;;
68196;SDS011;55019;49.382;11.358;2023-03-16T04:02:28;2.60;;;1.02;;
68196;SDS011;55019;49.382;11.358;2023-03-16T04:04:54;2.00;;;1.20;;
68196;SDS011;55019;49.382;11.358;2023-03-16T04:07:20;2.88;;;0.80;;
68196;SDS011;55019;49.382;11.358;2023-03-16T04:09:48;1.48;;;0.90;;
68196;SDS011;55019;49.382;11.358;2023-03-16T04:12:25;2.33;;;1.02;;
68196;SDS011;55019;49.382;11.358;2023-03-16T04:14:52;1.48;;;0.93;;
68196;SDS011;55019;49.382;11.358;2023-03-16T04:17:19;2.10;;;0.80;;
68196;SDS011;55019;49.382;11.358;2023-03-16T04:19:45;2.85;;;0.90;;
68196;SDS011;55019;49.382;11.358;2023-03-16T04:22:14;2.42;;;1.23;;
68196;SDS011;55019;49.382;11.358;2023-03-16T04:24:40;2.08;;;0.85;;
68196;SDS011;55019;49.382;11.358;2023-03-16T04:27:07;1.85;;;0.55;;
68196;SDS011;55019;49.382;11.358;2023-03-16T04:29:35;0.80;;;0.60;;
68196;SDS011;55019;49.382;11.358;2023-03-16T04:32:02;2.47;;;1.00;;
68196;SDS011;55019;49.382;11.358;2023-03-16T04:34:31;1.60;;;1.05;;
68196;SDS011;55019;49.382;11.358;2023-03-16T04:37:00;1.10;;;0.80;;
68196;SDS011;55019;49.382;11.358;2023-03-16T04:39:28;1.25;;;0.65;;
68196;SDS011;55019;49.382;11.358;2023-03-16T04:41:53;2.58;;;0.77;;
68196;SDS011;55019;49.382;11.358;2023-03-16T04:44:22;1.30;;;0.70;;
68196;SDS011;55019;49.382;11.358;2023-03-16T04:46:50;1.30;;;0.90;;
68196;SDS011;55019;49.382;11.358;2023-03-16T04:49:16;1.65;;;0.65;;
68196;SDS011;55019;49.382;11.358;2023-03-16T04:51:43;1.80;;;1.00;;
68196;SDS011;55019;49.382;11.358;2023-03-16T04:54:13;1.73;;;0.90;;
68196;SDS011;55019;49.382;11.358;2023-03-16T04:56:41;2.10;;;1.00;;
68196;SDS011;55019;49.382;11.358;2023-03-16T04:59:15;2.55;;;0.98;;
68196;SDS011;55019;49.382;11.358;2023-03-16T05:01:50;1.90;;;1.02;;
68196;SDS011;55019;49.382;11.358;2023-03-16T05:04:16;1.65;;;0.98;;
68196;SDS011;55019;49.382;11.358;2023-03-16T05:06:42;2.13;;;1.55;;
68196;SDS011;55019;49.382;11.358;2023-03-16T05:09:09;2.88;;;1.20;;
68196;SDS011;55019;49.382;11.358;2023-03-16T05:11:37;3.97;;;1.25;;
68196;SDS011;55019;49.382;11.358;2023-03-16T05:14:06;3.90;;;1.45;;
68196;SDS011;55019;49.382;11.358;2023-03-16T05:16:39;2.33;;;1.38;;
68196;SDS011;55019;49.382;11.358;2023-03-16T05:19:06;2.85;;;1.08;;
68196;SDS011;55019;49.382;11.358;2023-03-16T05:21:33;2.67;;;1.70;;
68196;SDS011;55019;49.382;11.358;2023-03-16T05:24:04;3.25;;;1.38;;
68196;SDS011;55019;49.382;11.358;2023-03-16T05:26:30;1.83;;;1.38;;
68196;SDS011;55019;49.382;11.358;2023-03-16T05:28:56;3.35;;;1.70;;
68196;SDS011;55019;49.382;11.358;2023-03-16T05:31:24;4.90;;;1.50;;
68196;SDS011;55019;49.382;11.358;2023-03-16T05:33:53;4.55;;;1.90;;
68196;SDS011;55019;49.382;11.358;2023-03-16T05:36:19;2.58;;;1.38;;
68196;SDS011;55019;49.382;11.358;2023-03-16T05:38:48;3.80;;;1.27;;
68196;SDS011;55019;49.382;11.358;2023-03-16T05:41:30;4.50;;;1.50;;
68196;SDS011;55019;49.382;11.358;2023-03-16T05:44:16;4.40;;;2.00;;
68196;SDS011;55019;49.382;11.358;2023-03-16T05:47:04;4.65;;;1.40;;
68196;SDS011;55019;49.382;11.358;2023-03-16T05:49:32;2.50;;;1.27;;
68196;SDS011;55019;49.382;11.358;2023-03-16T05:52:00;2.97;;;1.35;;
68196;SDS011;55019;49.382;11.358;2023-03-16T05:54:27;2.65;;;1.10;;
68196;SDS011;55019;49.382;11.358;2023-03-16T05:56:53;2.97;;;1.13;;
68196;SDS011;55019;49.382;11.358;2023-03-16T05:59:19;3.08;;;1.20;;
68196;SDS011;55019;49.382;11.358;2023-03-16T06:01:50;3.35;;;1.75;;
68196;SDS011;55019;49.382;11.358;2023-03-16T06:04:18;2.95;;;1.65;;
68196;SDS011;55019;49.382;11.358;2023-03-16T06:06:44;3.08;;;1.60;;
68196;SDS011;55019;49.382;11.358;2023-03-16T06:09:17;4.22;;;1.52;;
68196;SDS011;55019;49.382;11.358;2023-03-16T06:11:42;1.58;;;1.17;;
68196;SDS011;55019;49.382;11.358;2023-03-16T06:14:09;2.20;;;1.33;;
68196;SDS011;55019;49.382;11.358;2023-03-16T06:16:35;3.00;;;1.80;;
68196;SDS011;55019;49.382;11.358;2023-03-16T06:19:01;3.50;;;1.52;;
68196;SDS011;55019;49.382;11.358;2023-03-16T06:21:29;2.55;;;1.10;;
68196;SDS011;55019;49.382;11.358;2023-03-16T06:24:02;2.80;;;1.27;;
68196;SDS011;55019;49.382;11.358;2023-03-16T06:26:28;3.75;;;1.40;;
68196;SDS011;55019;49.382;11.358;2023-03-16T06:28:54;3.58;;;1.73;;
68196;SDS011;55019;49.382;11.358;2023-03-16T06:31:21;4.07;;;1.55;;
68196;SDS011;55019;49.382;11.358;2023-03-16T06:33:46;1.98;;;1.23;;
68196;SDS011;55019;49.382;11.358;2023-03-16T06:36:12;4.25;;;1.88;;
68196;SDS011;55019;49.382;11.358;2023-03-16T06:38:43;3.58;;;2.03;;
68196;SDS011;55019;49.382;11.358;2023-03-16T06:41:16;4.60;;;1.73;;
68196;SDS011;55019;49.382;11.358;2023-03-16T06:46:10;3.60;;;1.25;;
68196;SDS011;55019;49.382;11.358;2023-03-16T06:48:36;4.50;;;1.55;;
68196;SDS011;55019;49.382;11.358;2023-03-16T06:51:02;3.00;;;1.25;;
68196;SDS011;55019;49.382;11.358;2023-03-16T06:53:29;2.88;;;1.70;;
68196;SDS011;55019;49.382;11.358;2023-03-16T06:55:56;3.40;;;1.73;;
68196;SDS011;55019;49.382;11.358;2023-03-16T06:58:22;2.88;;;1.40;;
68196;SDS011;55019;49.382;11.358;2023-03-16T07:00:47;2.50;;;1.15;;
68196;SDS011;55019;49.382;11.358;2023-03-16T07:03:13;3.25;;;1.60;;
68196;SDS011;55019;49.382;11.358;2023-03-16T07:05:45;3.22;;;1.55;;
68196;SDS011;55019;49.382;11.358;2023-03-16T07:08:11;2.15;;;1.35;;
68196;SDS011;55019;49.382;11.358;2023-03-16T07:10:37;1.95;;;1.20;;
68196;SDS011;55019;49.382;11.358;2023-03-16T07:13:05;1.38;;;1.00;;
68196;SDS011;55019;49.382;11.358;2023-03-16T07:15:31;2.95;;;1.42;;
68196;SDS011;55019;49.382;11.358;2023-03-16T07:17:57;3.50;;;1.40;;
68196;SDS011;55019;49.382;11.358;2023-03-16T07:20:24;2.40;;;1.10;;
68196;SDS011;55019;49.382;11.358;2023-03-16T07:22:51;1.88;;;1.00;;
68196;SDS011;55019;49.382;11.358;2023-03-16T07:25:17;3.25;;;1.00;;
68196;SDS011;55019;49.382;11.358;2023-03-16T07:27:48;3.15;;;1.02;;
68196;SDS011;55019;49.382;11.358;2023-03-16T07:30:19;3.38;;;1.42;;
68196;SDS011;55019;49.382;11.358;2023-03-16T07:32:47;2.65;;;1.27;;
68196;SDS011;55019;49.382;11.358;2023-03-16T07:35:13;4.90;;;2.40;;
68196;SDS011;55019;49.382;11.358;2023-03-16T07:37:39;3.38;;;1.60;;
68196;SDS011;55019;49.382;11.358;2023-03-16T07:40:06;2.33;;;1.30;;
68196;SDS011;55019;49.382;11.358;2023-03-16T07:42:34;3.20;;;1.17;;
68196;SDS011;55019;49.382;11.358;2023-03-16T07:45:08;2.70;;;1.17;;
68196;SDS011;55019;49.382;11.358;2023-03-16T07:47:34;3.00;;;1.40;;
68196;SDS011;55019;49.382;11.358;2023-03-16T07:50:09;2.53;;;1.15;;
68196;SDS011;55019;49.382;11.358;2023-03-16T07:52:39;2.03;;;1.40;;
68196;SDS011;55019;49.382;11.358;2023-03-16T07:55:05;2.35;;;1.40;;
68196;SDS011;55019;49.382;11.358;2023-03-16T07:57:31;3.28;;;1.30;;
68196;SDS011;55019;49.382;11.358;2023-03-16T07:59:57;3.80;;;1.80;;
68196;SDS011;55019;49.382;11.358;2023-03-16T08:02:24;3.58;;;1.40;;
68196;SDS011;55019;49.382;11.358;2023-03-16T08:04:51;1.70;;;1.45;;
68196;SDS011;55019;49.382;11.358;2023-03-16T08:07:16;3.22;;;1.50;;
68196;SDS011;55019;49.382;11.358;2023-03-16T08:10:08;2.75;;;1.20;;
68196;SDS011;55019;49.382;11.358;2023-03-16T08:12:42;3.70;;;1.40;;
68196;SDS011;55019;49.382;11.358;2023-03-16T08:15:08;2.78;;;1.60;;
68196;SDS011;55019;49.382;11.358;2023-03-16T08:17:35;2.40;;;1.40;;
68196;SDS011;55019;49.382;11.358;2023-03-16T08:20:03;2.58;;;1.30;;
68196;SDS011;55019;49.382;11.358;2023-03-16T08:22:35;1.92;;;1.73;;
68196;SDS011;55019;49.382;11.358;2023-03-16T08:25:03;2.17;;;1.38;;
68196;SDS011;55019;49.382;11.358;2023-03-16T08:27:30;4.25;;;1.58;;
68196;SDS011;55019;49.382;11.358;2023-03-16T08:30:00;2.17;;;1.70;;
68196;SDS011;55019;49.382;11.358;2023-03-16T08:32:30;2.50;;;1.80;;
68196;SDS011;55019;49.382;11.358;2023-03-16T08:34:56;4.93;;;2.55;;
68196;SDS011;55019;49.382;11.358;2023-03-16T08:37:23;3.47;;;1.80;;
68196;SDS011;55019;49.382;11.358;2023-03-16T08:39:52;2.33;;;1.48;;
68196;SDS011;55019;49.382;11.358;2023-03-16T08:42:18;2.47;;;1.67;;
68196;SDS011;55019;49.382;11.358;2023-03-16T08:44:49;3.75;;;1.88;;
68196;SDS011;55019;49.382;11.358;2023-03-16T08:47:17;3.33;;;2.20;;
68196;SDS011;55019;49.382;11.358;2023-03-16T08:49:44;2.22;;;1.45;;
68196;SDS011;55019;49.382;11.358;2023-03-16T08:52:12;4.15;;;2.13;;
68196;SDS011;55019;49.382;11.358;2023-03-16T08:54:38;2.67;;;1.83;;
68196;SDS011;55019;49.382;11.358;2023-03-16T08:57:06;4.60;;;2.15;;
68196;SDS011;55019;49.382;11.358;2023-03-16T08:59:36;3.20;;;1.70;;
68196;SDS011;55019;49.382;11.358;2023-03-16T09:02:02;2.80;;;1.67;;
68196;SDS011;55019;49.382;11.358;2023-03-16T09:04:28;3.70;;;2.65;;
68196;SDS011;55019;49.382;11.358;2023-03-16T09:06:54;3.72;;;2.28;;
68196;SDS011;55019;49.382;11.358;2023-03-16T09:09:21;4.10;;;2.03;;
68196;SDS011;55019;49.382;11.358;2023-03-16T09:11:46;5.20;;;2.30;;
68196;SDS011;55019;49.382;11.358;2023-03-16T09:14:14;3.75;;;2.25;;
68196;SDS011;55019;49.382;11.358;2023-03-16T09:16:40;3.13;;;2.10;;
68196;SDS011;55019;49.382;11.358;2023-03-16T09:19:06;2.55;;;1.42;;
68196;SDS011;55019;49.382;11.358;2023-03-16T09:21:32;3.15;;;1.60;;
68196;SDS011;55019;49.382;11.358;2023-03-16T09:23:59;4.25;;;2.28;;
68196;SDS011;55019;49.382;11.358;2023-03-16T09:26:25;4.85;;;1.90;;
68196;SDS011;55019;49.382;11.358;2023-03-16T09:28:53;4.65;;;2.00;;
68196;SDS011;55019;49.382;11.358;2023-03-16T09:31:19;3.88;;;2.17;;
68196;SDS011;55019;49.382;11.358;2023-03-16T09:33:45;4.88;;;1.70;;
68196;SDS011;55019;49.382;11.358;2023-03-16T09:36:11;3.50;;;2.22;;
68196;SDS011;55019;49.382;11.358;2023-03-16T09:38:38;3.85;;;1.67;;
68196;SDS011;55019;49.382;11.358;2023-03-16T09:41:08;3.45;;;2.30;;
68196;SDS011;55019;49.382;11.358;2023-03-16T09:43:48;4.82;;;2.00;;
68196;SDS011;55019;49.382;11.358;2023-03-16T09:46:40;3.55;;;1.75;;
68196;SDS011;55019;49.382;11.358;2023-03-16T09:49:09;3.80;;;2.22;;
68196;SDS011;55019;49.382;11.358;2023-03-16T09:51:44;4.43;;;2.10;;
68196;SDS011;55019;49.382;11.358;2023-03-16T10:00:33;3.92;;;2.38;;
68196;SDS011;55019;49.382;11.358;2023-03-16T10:06:26;3.40;;;1.75;;
68196;SDS011;55019;49.382;11.358;2023-03-16T10:12:18;3.20;;;2.13;;
68196;SDS011;55019;49.382;11.358;2023-03-16T10:17:16;2.83;;;1.92;;
68196;SDS011;55019;49.382;11.358;2023-03-16T10:20:16;2.97;;;1.73;;
68196;SDS011;55019;49.382;11.358;2023-03-16T10:22:45;3.42;;;1.90;;
68196;SDS011;55019;49.382;11.358;2023-03-16T10:28:13;3.38;;;2.10;;
68196;SDS011;55019;49.382;11.358;2023-03-16T10:30:41;2.05;;;1.50;;
68196;SDS011;55019;49.382;11.358;2023-03-16T10:43:50;1.95;;;1.40;;
68196;SDS011;55019;49.382;11.358;2023-03-16T10:46:18;1.95;;;1.42;;
68196;SDS011;55019;49.382;11.358;2023-03-16T10:48:57;2.20;;;1.80;;
68196;SDS011;55019;49.382;11.358;2023-03-16T10:51:31;2.53;;;1.38;;
68196;SDS011;55019;49.382;11.358;2023-03-16T10:56:39;2.03;;;1.42;;
68196;SDS011;55019;49.382;11.358;2023-03-16T11:01:52;2.15;;;1.42;;
68196;SDS011;55019;49.382;11.358;2023-03-16T11:04:19;2.00;;;1.20;;
68196;SDS011;55019;49.382;11.358;2023-03-16T11:06:50;2.17;;;1.30;;
68196;SDS011;55019;49.382;11.358;2023-03-16T11:09:20;1.88;;;1.10;;
68196;SDS011;55019;49.382;11.358;2023-03-16T11:11:58;1.25;;;1.15;;
68196;SDS011;55019;49.382;11.358;2023-03-16T11:14:26;3.03;;;1.40;;
68196;SDS011;55019;49.382;11.358;2023-03-16T11:17:01;2.38;;;1.20;;
68196;SDS011;55019;49.382;11.358;2023-03-16T11:19:55;2.17;;;1.20;;
68196;SDS011;55019;49.382;11.358;2023-03-16T11:22:25;1.17;;;1.08;;
68196;SDS011;55019;49.382;11.358;2023-03-16T11:32:50;2.55;;;1.60;;
68196;SDS011;55019;49.382;11.358;2023-03-16T11:35:19;2.05;;;1.67;;
68196;SDS011;55019;49.382;11.358;2023-03-16T11:38:09;1.83;;;1.42;;
68196;SDS011;55019;49.382;11.358;2023-03-16T11:46:15;1.70;;;1.17;;
68196;SDS011;55019;49.382;11.358;2023-03-16T11:51:27;2.75;;;1.75;;
68196;SDS011;55019;49.382;11.358;2023-03-16T11:57:06;1.95;;;1.45;;
68196;SDS011;55019;49.382;11.358;2023-03-16T12:11:27;1.67;;;1.50;;
68196;SDS011;55019;49.382;11.358;2023-03-16T12:14:15;1.40;;;0.90;;
68196;SDS011;55019;49.382;11.358;2023-03-16T12:17:12;1.63;;;0.95;;
68196;SDS011;55019;49.382;11.358;2023-03-16T12:19:43;1.58;;;1.10;;
68196;SDS011;55019;49.382;11.358;2023-03-16T12:22:21;1.33;;;1.20;;
68196;SDS011;55019;49.382;11.358;2023-03-16T12:24:54;2.03;;;1.00;;
68196;SDS011;55019;49.382;11.358;2023-03-16T12:27:21;1.58;;;1.45;;
68196;SDS011;55019;49.382;11.358;2023-03-16T12:32:58;2.03;;;1.70;;
68196;SDS011;55019;49.382;11.358;2023-03-16T12:46:41;1.95;;;1.30;;
68196;SDS011;55019;49.382;11.358;2023-03-16T12:49:17;2.00;;;1.35;;
68196;SDS011;55019;49.382;11.358;2023-03-16T12:51:47;1.30;;;1.20;;
68196;SDS011;55019;49.382;11.358;2023-03-16T12:54:24;1.60;;;1.30;;
68196;SDS011;55019;49.382;11.358;2023-03-16T12:57:00;1.50;;;1.02;;
68196;SDS011;55019;49.382;11.358;2023-03-16T12:59:39;1.30;;;1.20;;
68196;SDS011;55019;49.382;11.358;2023-03-16T13:02:14;1.58;;;1.25;;
68196;SDS011;55019;49.382;11.358;2023-03-16T13:04:44;1.83;;;1.25;;
68196;SDS011;55019;49.382;11.358;2023-03-16T13:07:16;1.48;;;1.10;;
68196;SDS011;55019;49.382;11.358;2023-03-16T13:09:51;1.27;;;1.05;;
68196;SDS011;55019;49.382;11.358;2023-03-16T13:12:28;1.38;;;1.00;;
68196;SDS011;55019;49.382;11.358;2023-03-16T13:14:57;1.27;;;1.08;;
68196;SDS011;55019;49.382;11.358;2023-03-16T13:17:24;2.30;;;1.27;;
68196;SDS011;55019;49.382;11.358;2023-03-16T13:22:47;1.92;;;1.30;;
68196;SDS011;55019;49.382;11.358;2023-03-16T13:25:20;2.10;;;1.33;;
68196;SDS011;55019;49.382;11.358;2023-03-16T13:28:10;1.55;;;1.25;;
68196;SDS011;55019;49.382;11.358;2023-03-16T13:30:42;1.45;;;1.00;;
68196;SDS011;55019;49.382;11.358;2023-03-16T13:33:18;1.10;;;1.00;;
68196;SDS011;55019;49.382;11.358;2023-03-16T13:39:54;0.93;;;0.90;;
68196;SDS011;55019;49.382;11.358;2023-03-16T13:42:23;1.73;;;1.20;;
68196;SDS011;55019;49.382;11.358;2023-03-16T13:44:51;1.67;;;1.30;;
68196;SDS011;55019;49.382;11.358;2023-03-16T13:47:18;2.22;;;1.73;;
68196;SDS011;55019;49.382;11.358;2023-03-16T13:49:49;1.67;;;1.42;;
68196;SDS011;55019;49.382;11.358;2023-03-16T13:52:21;1.20;;;1.10;;
68196;SDS011;55019;49.382;11.358;2023-03-16T13:54:50;1.55;;;1.23;;
68196;SDS011;55019;49.382;11.358;2023-03-16T13:57:21;1.67;;;1.40;;
68196;SDS011;55019;49.382;11.358;2023-03-16T13:59:49;1.38;;;1.25;;
68196;SDS011;55019;49.382;11.358;2023-03-16T14:02:18;1.40;;;1.13;;
68196;SDS011;55019;49.382;11.358;2023-03-16T14:04:46;1.63;;;1.48;;
68196;SDS011;55019;49.382;11.358;2023-03-16T14:07:17;2.50;;;1.52;;
68196;SDS011;55019;49.382;11.358;2023-03-16T14:19:01;3.67;;;2.00;;
68196;SDS011;55019;49.382;11.358;2023-03-16T14:21:32;3.40;;;2.35;;
68196;SDS011;55019;49.382;11.358;2023-03-16T14:24:02;4.38;;;3.05;;
68196;SDS011;55019;49.382;11.358;2023-03-16T14:26:41;2.08;;;1.85;;
68196;SDS011;55019;49.382;11.358;2023-03-16T14:29:25;2.38;;;2.00;;
68196;SDS011;55019;49.382;11.358;2023-03-16T14:31:54;3.58;;;2.60;;
68196;SDS011;55019;49.382;11.358;2023-03-16T14:36:47;2.53;;;2.30;;
68196;SDS011;55019;49.382;11.358;2023-03-16T14:39:14;2.90;;;2.10;;
68196;SDS011;55019;49.382;11.358;2023-03-16T14:41:43;3.78;;;2.78;;
68196;SDS011;55019;49.382;11.358;2023-03-16T14:44:21;6.28;;;4.55;;
68196;SDS011;55019;49.382;11.358;2023-03-16T14:46:49;2.70;;;2.17;;
68196;SDS011;55019;49.382;11.358;2023-03-16T14:49:26;5.22;;;3.63;;
68196;SDS011;55019;49.382;11.358;2023-03-16T14:51:57;3.83;;;2.38;;
68196;SDS011;55019;49.382;11.358;2023-03-16T14:54:26;2.72;;;2.40;;
68196;SDS011;55019;49.382;11.358;2023-03-16T14:56:54;3.90;;;2.90;;
68196;SDS011;55019;49.382;11.358;2023-03-16T14:59:24;3.42;;;2.65;;
68196;SDS011;55019;49.382;11.358;2023-03-16T15:01:50;4.40;;;2.70;;
68196;SDS011;55019;49.382;11.358;2023-03-16T15:04:29;3.60;;;2.63;;
68196;SDS011;55019;49.382;11.358;2023-03-16T15:06:58;4.15;;;3.05;;
68196;SDS011;55019;49.382;11.358;2023-03-16T15:09:37;3.10;;;2.38;;
68196;SDS011;55019;49.382;11.358;2023-03-16T15:12:14;4.82;;;3.35;;
68196;SDS011;55019;49.382;11.358;2023-03-16T15:14:42;3.65;;;2.50;;
68196;SDS011;55019;49.382;11.358;2023-03-16T15:17:27;3.92;;;2.63;;
68196;SDS011;55019;49.382;11.358;2023-03-16T15:19:53;4.53;;;3.00;;
68196;SDS011;55019;49.382;11.358;2023-03-16T15:22:23;4.28;;;3.40;;
68196;SDS011;55019;49.382;11.358;2023-03-16T15:24:53;3.58;;;2.60;;
68196;SDS011;55019;49.382;11.358;2023-03-16T15:27:27;3.88;;;3.00;;
68196;SDS011;55019;49.382;11.358;2023-03-16T15:29:58;6.43;;;4.45;;
68196;SDS011;55019;49.382;11.358;2023-03-16T15:32:24;4.32;;;2.88;;
68196;SDS011;55019;49.382;11.358;2023-03-16T15:34:50;3.72;;;2.70;;
68196;SDS011;55019;49.382;11.358;2023-03-16T15:37:16;4.03;;;2.53;;
68196;SDS011;55019;49.382;11.358;2023-03-16T15:39:44;3.42;;;2.00;;
68196;SDS011;55019;49.382;11.358;2023-03-16T15:42:15;2.65;;;1.80;;
68196;SDS011;55019;49.382;11.358;2023-03-16T15:44:42;1.80;;;1.42;;
68196;SDS011;55019;49.382;11.358;2023-03-16T15:47:09;3.33;;;2.30;;
68196;SDS011;55019;49.382;11.358;2023-03-16T15:49:36;2.67;;;2.08;;
68196;SDS011;55019;49.382;11.358;2023-03-16T15:52:03;3.97;;;2.22;;
68196;SDS011;55019;49.382;11.358;2023-03-16T15:54:31;3.35;;;2.60;;
68196;SDS011;55019;49.382;11.358;2023-03-16T15:56:59;3.70;;;2.20;;
68196;SDS011;55019;49.382;11.358;2023-03-16T15:59:26;4.95;;;2.50;;
68196;SDS011;55019;49.382;11.358;2023-03-16T16:01:58;3.30;;;2.10;;
68196;SDS011;55019;49.382;11.358;2023-03-16T16:04:26;2.60;;;1.90;;
68196;SDS011;55019;49.382;11.358;2023-03-16T16:06:55;2.80;;;2.05;;
68196;SDS011;55019;49.382;11.358;2023-03-16T16:09:22;2.97;;;2.13;;
68196;SDS011;55019;49.382;11.358;2023-03-16T16:11:48;3.85;;;1.95;;
68196;SDS011;55019;49.382;11.358;2023-03-16T16:14:15;4.35;;;2.50;;
68196;SDS011;55019;49.382;11.358;2023-03-16T16:16:43;3.50;;;1.90;;
68196;SDS011;55019;49.382;11.358;2023-03-16T16:19:13;3.42;;;2.20;;
68196;SDS011;55019;49.382;11.358;2023-03-16T16:21:39;3.75;;;2.40;;
68196;SDS011;55019;49.382;11.358;2023-03-16T16:24:07;4.25;;;2.33;;
68196;SDS011;55019;49.382;11.358;2023-03-16T16:26:34;3.15;;;1.92;;
68196;SDS011;55019;49.382;11.358;2023-03-16T16:29:10;3.75;;;2.40;;
68196;SDS011;55019;49.382;11.358;2023-03-16T16:31:38;3.08;;;2.25;;
68196;SDS011;55019;49.382;11.358;2023-03-16T16:34:04;3.45;;;2.40;;
68196;SDS011;55019;49.382;11.358;2023-03-16T16:36:35;2.00;;;1.80;;
68196;SDS011;55019;49.382;11.358;2023-03-16T16:39:01;3.65;;;2.33;;
68196;SDS011;55019;49.382;11.358;2023-03-16T16:41:28;3.70;;;2.30;;